Time;durP1;ratioP1;P1;durP2;ratioP2;P2;SDS_P1;SDS_P2;PMS_P1;PMS_P2;Temp;Humidity;BMP_temperature;BMP_pressure;BME280_temperature;BME280_humidity;BME280_pressure;Samples;Min_cycle;Max_cycle;Signal;HPM_P1;HPM_P2
2022/09/28 00:01:53;;;;;;;1.02;0.73;;;;;;;9.12;51.26;91167.22;5028929;28;20021;-73
2022/09/28 00:04:19;;;;;;;1.25;0.70;;;;;;;9.14;51.05;91170.31;5031143;28;20044;-73
2022/09/28 00:06:46;;;;;;;0.50;0.50;;;;;;;9.09;52.10;91173.03;5013127;28;20045;-73
2022/09/28 00:09:12;;;;;;;0.85;0.68;;;;;;;9.08;52.39;91175.97;5031113;28;20075;-73
2022/09/28 00:11:38;;;;;;;0.60;0.60;;;;;;;9.07;51.69;91177.81;5027168;28;20128;-73
2022/09/28 00:14:06;;;;;;;1.80;0.70;;;;;;;9.09;51.63;91173.03;5030682;28;20033;-73
2022/09/28 00:16:40;;;;;;;1.63;0.73;;;;;;;9.08;52.85;91166.31;5029637;28;20045;-73
2022/09/28 00:19:07;;;;;;;0.60;0.60;;;;;;;9.09;52.49;91167.06;4993215;28;20037;-72
2022/09/28 00:21:36;;;;;;;1.13;0.82;;;;;;;9.08;53.50;91170.75;5024835;28;20045;-73
2022/09/28 00:24:17;;;;;;;0.60;0.60;;;;;;;9.08;53.24;91168.91;5029842;28;20068;-73
2022/09/28 00:26:47;;;;;;;0.40;0.40;;;;;;;9.03;54.49;91182.13;5030676;28;20029;-73
2022/09/28 00:29:23;;;;;;;0.77;0.60;;;;;;;9.01;54.27;91181.66;5029433;28;20037;-73
2022/09/28 00:31:59;;;;;;;0.77;0.68;;;;;;;8.97;54.47;91175.53;5029134;28;20033;-73
2022/09/28 00:34:26;;;;;;;0.47;0.47;;;;;;;8.96;54.00;91172.16;5028685;28;20028;-73
2022/09/28 00:36:51;;;;;;;0.68;0.60;;;;;;;9.00;53.87;91168.91;5029099;28;20040;-73
2022/09/28 00:39:17;;;;;;;3.45;0.70;;;;;;;9.19;51.47;91166.75;5012931;28;20042;-73
2022/09/28 00:41:44;;;;;;;0.85;0.60;;;;;;;9.21;52.18;91175.06;5029281;28;20116;-74
2022/09/28 00:44:25;;;;;;;0.93;0.60;;;;;;;9.30;53.04;91162.75;5029174;28;20116;-73
2022/09/28 00:47:08;;;;;;;0.47;0.47;;;;;;;9.25;53.81;91155.06;5029079;28;20040;-73
2022/09/28 00:49:42;;;;;;;0.50;0.50;;;;;;;9.31;53.15;91159.06;5030576;28;20060;-73
2022/09/28 00:52:12;;;;;;;0.40;0.40;;;;;;;9.37;50.84;91144.75;5028187;28;20402;-73
2022/09/28 00:54:40;;;;;;;0.55;0.55;;;;;;;9.49;49.97;91148.56;5030245;28;20037;-73
2022/09/28 00:57:05;;;;;;;0.40;0.40;;;;;;;9.66;49.61;91145.13;5028804;28;20033;-73
2022/09/28 00:59:32;;;;;;;0.68;0.68;;;;;;;9.65;49.90;91144.38;5030345;28;20395;-73
2022/09/28 01:01:58;;;;;;;0.93;0.65;;;;;;;9.66;49.68;91140.69;5030016;28;20044;-74
2022/09/28 01:04:23;;;;;;;0.75;0.60;;;;;;;9.65;52.05;91141.75;5030362;28;20030;-73
2022/09/28 01:06:50;;;;;;;0.65;0.60;;;;;;;9.63;52.70;91143.91;5029147;28;20060;-74
2022/09/28 01:09:18;;;;;;;0.80;0.57;;;;;;;9.58;53.44;91141.47;5030140;28;20040;-73
2022/09/28 01:11:44;;;;;;;0.90;0.70;;;;;;;9.52;53.91;91138.25;5012925;28;20061;-74
2022/09/28 01:14:12;;;;;;;0.77;0.70;;;;;;;9.51;54.16;91143.81;5012270;28;20042;-73
2022/09/28 01:16:47;;;;;;;0.80;0.70;;;;;;;9.45;54.45;91139.81;5029965;28;20084;-73
2022/09/28 01:19:50;;;;;;;0.95;0.65;;;;;;;9.42;54.07;91133.38;5014847;28;20037;-73
2022/09/28 01:22:44;;;;;;;0.75;0.68;;;;;;;9.41;54.69;91137.06;5028394;28;20068;-73
2022/09/28 01:25:10;;;;;;;0.65;0.65;;;;;;;9.42;54.04;91137.84;5030448;28;20045;-73
2022/09/28 01:27:49;;;;;;;0.50;0.50;;;;;;;9.42;56.14;91128.16;5030938;28;20487;-73
2022/09/28 01:30:19;;;;;;;0.68;0.55;;;;;;;9.44;56.04;91120.78;5032461;28;20033;-73
2022/09/28 01:32:51;;;;;;;0.57;0.57;;;;;;;9.44;55.73;91122.63;5032904;28;20040;-73
2022/09/28 01:35:32;;;;;;;0.50;0.50;;;;;;;9.41;55.47;91120.63;5032389;28;20491;-73
2022/09/28 01:38:16;;;;;;;0.75;0.70;;;;;;;9.41;54.90;91120.63;5032786;28;20525;-73
2022/09/28 01:40:43;;;;;;;0.70;0.70;;;;;;;9.44;54.56;91130.47;5033036;28;20041;-73
2022/09/28 01:43:28;;;;;;;0.77;0.60;;;;;;;9.42;55.55;91130.75;5032620;28;20550;-73
2022/09/28 01:46:16;;;;;;;0.98;0.70;;;;;;;9.43;56.03;91134.13;5032358;28;20041;-73
2022/09/28 01:48:48;;;;;;;3.10;1.10;;;;;;;9.39;57.20;91123.56;5015972;28;20030;-74
2022/09/28 01:51:40;;;;;;;1.00;0.52;;;;;;;9.37;55.65;91121.25;5032172;28;20127;-73
2022/09/28 01:54:13;;;;;;;0.60;0.60;;;;;;;9.37;54.17;91108.19;5031637;28;20042;-74
2022/09/28 01:56:55;;;;;;;2.05;0.60;;;;;;;9.42;52.70;91103.88;5032218;28;20555;-74
2022/09/28 01:59:27;;;;;;;1.65;0.80;;;;;;;9.42;52.51;91112.47;5031332;28;20116;-74
2022/09/28 02:01:57;;;;;;;0.90;0.73;;;;;;;9.41;53.59;91110.19;5032203;28;20677;-73
2022/09/28 02:04:31;;;;;;;4.82;0.80;;;;;;;9.37;55.19;91102.97;5031710;28;20032;-73
2022/09/28 02:07:06;;;;;;;0.73;0.73;;;;;;;9.32;55.79;91095.31;5031710;28;20102;-73
2022/09/28 02:09:44;;;;;;;0.82;0.55;;;;;;;9.33;56.04;91099.44;5012031;28;20072;-74
2022/09/28 02:12:19;;;;;;;1.50;0.60;;;;;;;9.29;56.93;91098.53;5021833;28;20500;-72
2022/09/28 02:14:47;;;;;;;0.60;0.60;;;;;;;9.27;57.68;91095.47;5028521;28;20065;-72
2022/09/28 02:17:15;;;;;;;0.45;0.45;;;;;;;9.24;58.35;91096.09;5025411;28;20104;-73
2022/09/28 02:19:41;;;;;;;1.02;0.80;;;;;;;9.21;58.58;91095.94;5031761;28;20093;-72
2022/09/28 02:22:41;;;;;;;0.70;0.60;;;;;;;9.19;58.74;91101.50;5026780;28;20400;-72
2022/09/28 02:25:12;;;;;;;1.45;0.57;;;;;;;9.18;57.39;91097.31;5011415;28;20057;-72
2022/09/28 02:27:59;;;;;;;2.10;0.90;;;;;;;9.20;58.27;91116.06;5011753;28;20129;-73
2022/09/28 02:30:26;;;;;;;0.93;0.65;;;;;;;9.18;58.81;91107.78;4995955;28;20040;-73
2022/09/28 02:32:58;;;;;;;0.75;0.70;;;;;;;9.16;58.28;91115.16;5014204;28;20037;-73
2022/09/28 02:35:24;;;;;;;0.88;0.63;;;;;;;9.14;58.57;91106.84;5031259;28;20040;-73
2022/09/28 02:37:50;;;;;;;1.83;0.70;;;;;;;9.17;60.01;91103.63;5031208;28;20041;-73
2022/09/28 02:40:19;;;;;;;0.77;0.60;;;;;;;9.17;59.00;91107.00;5030111;28;20041;-73
2022/09/28 02:43:20;;;;;;;2.85;0.70;;;;;;;9.17;58.87;91101.03;5031085;28;20041;-73
2022/09/28 02:46:09;;;;;;;0.57;0.57;;;;;;;9.19;57.21;91101.50;5031147;28;20041;-73
2022/09/28 02:49:09;;;;;;;0.70;0.60;;;;;;;9.20;58.64;91100.41;5031164;28;20128;-73
2022/09/28 02:51:56;;;;;;;1.10;0.70;;;;;;;9.21;58.51;91101.16;5031205;28;20056;-73
2022/09/28 02:54:56;;;;;;;0.52;0.50;;;;;;;9.21;58.23;91101.94;5030877;28;20561;-74
2022/09/28 02:57:44;;;;;;;0.70;0.70;;;;;;;9.21;54.11;91101.94;5014264;28;20697;-73
2022/09/28 03:00:16;;;;;;;0.50;0.50;;;;;;;9.24;56.79;91093.47;5030725;28;20122;-73
2022/09/28 03:03:06;;;;;;;0.65;0.65;;;;;;;9.27;58.02;91089.47;5032114;28;20041;-73
2022/09/28 03:05:56;;;;;;;1.48;0.82;;;;;;;9.24;59.30;91087.50;5014730;28;20044;-74
2022/09/28 03:08:38;;;;;;;2.45;1.40;;;;;;;9.19;59.51;91075.38;5030440;28;20041;-73
2022/09/28 03:11:17;;;;;;;3.47;1.60;;;;;;;9.19;55.18;91088.44;5030600;28;20044;-74
2022/09/28 03:13:46;;;;;;;1.80;1.20;;;;;;;9.23;54.85;91094.56;5030838;28;20087;-74
2022/09/28 03:16:15;;;;;;;2.20;1.10;;;;;;;9.24;54.87;91083.03;5013810;28;20033;-73
2022/09/28 03:18:44;;;;;;;1.77;1.10;;;;;;;9.23;57.01;91084.13;5030652;28;20069;-73
2022/09/28 03:21:14;;;;;;;2.10;1.20;;;;;;;9.21;58.24;91091.50;5014040;28;20080;-73
2022/09/28 03:23:40;;;;;;;1.67;0.95;;;;;;;9.17;58.38;91082.75;5030321;28;20140;-73
2022/09/28 03:26:12;;;;;;;0.88;0.82;;;;;;;9.15;57.83;91090.13;5030251;28;20052;-73
2022/09/28 03:28:39;;;;;;;1.13;0.80;;;;;;;9.13;57.46;91089.66;5050702;28;20021;-73
2022/09/28 03:31:07;;;;;;;1.25;0.80;;;;;;;9.11;57.85;91091.81;5048481;28;20033;-74
2022/09/28 03:33:33;;;;;;;0.80;0.70;;;;;;;9.11;57.50;91095.19;5032331;28;20037;-73
2022/09/28 03:35:59;;;;;;;0.77;0.60;;;;;;;9.23;59.25;91099.00;5045260;28;20087;-74
2022/09/28 03:38:24;;;;;;;1.95;0.63;;;;;;;9.17;59.42;91095.81;5013570;28;20044;-73
2022/09/28 03:40:55;;;;;;;1.25;0.88;;;;;;;9.08;59.89;91090.59;5013964;28;20037;-73
2022/09/28 03:43:22;;;;;;;1.05;0.80;;;;;;;9.01;59.57;91090.31;5029768;28;20041;-73
2022/09/28 03:45:57;;;;;;;0.80;0.80;;;;;;;8.98;59.27;91087.53;5029955;28;20091;-74
2022/09/28 03:48:25;;;;;;;0.70;0.70;;;;;;;8.94;58.92;91092.63;5029645;28;20037;-73
2022/09/28 03:50:55;;;;;;;0.82;0.70;;;;;;;8.92;60.00;91107.81;5029378;28;20422;-74
2022/09/28 03:53:22;;;;;;;0.80;0.70;;;;;;;8.91;58.37;91099.22;5029452;28;20030;-74
2022/09/28 03:55:49;;;;;;;1.15;0.75;;;;;;;8.88;58.87;91104.28;5029790;28;20504;-74
2022/09/28 03:58:19;;;;;;;0.80;0.60;;;;;;;8.84;59.34;91103.38;5029534;28;20071;-74
2022/09/28 04:00:47;;;;;;;1.05;0.70;;;;;;;8.79;59.42;91106.16;5030268;28;20065;-75
2022/09/28 04:03:13;;;;;;;1.20;0.60;;;;;;;8.79;58.55;91106.91;5013637;28;20076;-74
2022/09/28 04:05:38;;;;;;;0.60;0.60;;;;;;;8.76;58.83;91104.91;5029827;28;20049;-72
2022/09/28 04:08:04;;;;;;;1.00;0.60;;;;;;;8.75;58.57;91100.75;5013369;28;20159;-73
2022/09/28 04:10:30;;;;;;;1.08;0.70;;;;;;;8.79;59.10;91111.38;5029641;28;20037;-72
2022/09/28 04:12:56;;;;;;;0.88;0.68;;;;;;;8.76;59.48;91115.34;5027419;28;20052;-72
2022/09/28 04:15:25;;;;;;;1.33;0.75;;;;;;;8.77;59.22;91110.91;5012919;28;20415;-73
2022/09/28 04:17:51;;;;;;;0.70;0.70;;;;;;;8.78;59.02;91108.00;5029354;28;20032;-73
2022/09/28 04:20:39;;;;;;;0.43;0.43;;;;;;;8.79;58.81;91106.91;5015720;28;20154;-73
2022/09/28 04:23:11;;;;;;;0.60;0.60;;;;;;;8.78;59.93;91100.16;5030620;28;20431;-73
2022/09/28 04:25:38;;;;;;;0.82;0.70;;;;;;;8.77;59.63;91097.84;5012921;28;20095;-73
2022/09/28 04:30:49;;;;;;;0.60;0.60;;;;;;;8.74;59.26;91096.63;5024990;28;20041;-73
2022/09/28 04:33:15;;;;;;;1.30;0.60;;;;;;;8.74;59.40;91101.84;5008014;28;20111;-73
2022/09/28 04:35:41;;;;;;;0.57;0.57;;;;;;;8.75;59.02;91095.53;5046631;28;20037;-74
2022/09/28 04:38:06;;;;;;;0.50;0.50;;;;;;;8.77;59.48;91096.00;5031687;28;20044;-74
2022/09/28 04:40:32;;;;;;;0.90;0.63;;;;;;;8.75;59.71;91092.94;5046170;28;20037;-74
2022/09/28 04:42:58;;;;;;;4.28;0.75;;;;;;;8.75;59.33;91100.75;5014831;28;20034;-74
2022/09/28 04:45:27;;;;;;;1.55;0.77;;;;;;;8.71;60.76;91108.47;5039219;28;20042;-74
2022/09/28 04:47:57;;;;;;;1.15;0.63;;;;;;;8.70;60.69;91106.16;5026097;28;20545;-74
2022/09/28 04:50:51;;;;;;;0.60;0.60;;;;;;;8.68;60.63;91114.28;5022850;28;20125;-74
2022/09/28 04:53:19;;;;;;;0.70;0.70;;;;;;;8.67;60.91;91106.75;5027699;28;20040;-74
2022/09/28 04:55:56;;;;;;;3.00;0.70;;;;;;;8.68;60.75;91103.84;5046885;28;20049;-74
2022/09/28 04:58:22;;;;;;;0.85;0.70;;;;;;;8.70;59.63;91100.94;5027819;28;20047;-74
2022/09/28 05:00:50;;;;;;;0.60;0.50;;;;;;;8.72;58.94;91096.94;5033367;28;20037;-74
2022/09/28 05:03:44;;;;;;;0.57;0.57;;;;;;;8.77;59.27;91103.06;5012972;28;20129;-74
2022/09/28 05:06:21;;;;;;;5.15;0.80;;;;;;;8.80;61.21;91103.22;5032803;28;20053;-73
2022/09/28 05:08:52;;;;;;;0.90;0.75;;;;;;;8.80;61.37;91102.44;5030857;28;20556;-74
2022/09/28 05:11:20;;;;;;;1.77;0.73;;;;;;;8.78;63.00;91105.38;5032276;28;20052;-73
2022/09/28 05:13:47;;;;;;;0.70;0.68;;;;;;;8.72;62.51;91114.44;5030539;28;20407;-77
2022/09/28 05:16:15;;;;;;;2.15;0.88;;;;;;;8.72;63.11;91112.59;5013488;28;20115;-74
2022/09/28 05:19:01;;;;;;;1.23;0.70;;;;;;;8.72;62.43;91111.81;5033932;28;20549;-73
2022/09/28 05:21:28;;;;;;;2.67;0.80;;;;;;;8.72;62.06;91107.38;5031817;28;20125;-73
2022/09/28 05:23:55;;;;;;;2.00;0.65;;;;;;;8.74;62.49;91101.84;5038850;28;20045;-73
2022/09/28 05:26:22;;;;;;;2.40;1.00;;;;;;;8.74;62.76;91101.84;5032400;28;20044;-73
2022/09/28 05:28:47;;;;;;;4.45;1.23;;;;;;;8.76;62.18;91094.50;5032204;28;20041;-73
2022/09/28 05:31:31;;;;;;;4.05;1.38;;;;;;;8.77;61.97;91093.41;5023883;28;20048;-73
2022/09/28 05:34:29;;;;;;;2.10;1.20;;;;;;;8.79;61.27;91101.69;4994617;28;20059;-73
2022/09/28 05:36:55;;;;;;;3.25;1.13;;;;;;;8.81;61.39;91094.31;5029834;28;20048;-73
2022/09/28 05:39:21;;;;;;;1.80;1.00;;;;;;;8.82;61.99;91095.84;5030468;28;20029;-73
2022/09/28 05:41:47;;;;;;;0.82;0.65;;;;;;;8.84;61.54;91098.91;5031338;28;20045;-73
2022/09/28 05:44:12;;;;;;;1.67;0.93;;;;;;;8.85;61.92;91090.03;5033694;28;20053;-73
2022/09/28 05:46:38;;;;;;;4.13;2.20;;;;;;;8.90;62.32;91086.50;5032321;28;20037;-73
2022/09/28 05:49:03;;;;;;;3.58;1.70;;;;;;;8.94;62.73;91085.56;5012820;28;20041;-73
2022/09/28 05:51:29;;;;;;;1.13;1.00;;;;;;;8.94;62.87;91085.56;5021561;28;20034;-73
2022/09/28 05:53:55;;;;;;;0.70;0.70;;;;;;;8.94;62.43;91090.78;5011356;28;20046;-73
2022/09/28 05:56:23;;;;;;;1.02;0.68;;;;;;;8.94;62.94;91082.94;5032075;28;20044;-73
2022/09/28 05:58:51;;;;;;;2.03;1.00;;;;;;;8.96;62.75;91072.97;5013186;28;20037;-72
2022/09/28 06:01:18;;;;;;;2.05;1.00;;;;;;;9.00;62.98;91070.50;5013772;28;20056;-72
2022/09/28 06:03:44;;;;;;;3.00;1.10;;;;;;;9.04;63.15;91075.88;5030456;28;20399;-72
2022/09/28 06:06:10;;;;;;;2.08;1.10;;;;;;;9.08;63.13;91072.31;5014133;28;20045;-72
2022/09/28 06:08:37;;;;;;;2.13;1.08;;;;;;;9.13;64.33;91074.00;5030572;28;20179;-72
2022/09/28 06:11:24;;;;;;;2.83;1.00;;;;;;;9.18;64.65;91071.22;5030669;28;20045;-72
2022/09/28 06:13:54;;;;;;;2.22;0.90;;;;;;;9.21;63.60;91070.63;5041578;28;20396;-72
2022/09/28 06:16:20;;;;;;;3.15;0.70;;;;;;;9.28;63.17;91078.72;5028981;28;20083;-73
2022/09/28 06:18:45;;;;;;;2.10;0.80;;;;;;;9.36;62.68;91074.53;5029610;28;20107;-73
2022/09/28 06:21:22;;;;;;;2.05;1.02;;;;;;;9.39;62.04;91076.56;5010915;28;20535;-72
2022/09/28 06:23:49;;;;;;;1.73;1.00;;;;;;;9.42;62.31;91080.38;5027113;28;20129;-72
2022/09/28 06:26:15;;;;;;;2.15;1.02;;;;;;;9.49;62.60;91085.88;5027206;28;20165;-72
2022/09/28 06:28:41;;;;;;;4.20;1.00;;;;;;;9.56;62.42;91084.31;4994070;28;20488;-72
2022/09/28 06:31:07;;;;;;;2.38;0.88;;;;;;;9.62;62.46;91084.91;5026506;28;20037;-72
2022/09/28 06:33:41;;;;;;;2.63;1.10;;;;;;;9.66;61.96;91070.16;5027023;28;20515;-72
2022/09/28 06:36:08;;;;;;;2.38;0.82;;;;;;;9.75;61.81;91081.31;5040123;28;20484;-73
2022/09/28 06:38:34;;;;;;;4.72;0.95;;;;;;;9.80;62.19;91080.38;5030119;28;20797;-72
2022/09/28 06:41:01;;;;;;;2.58;0.80;;;;;;;9.84;63.22;91075.28;5030221;28;20410;-72
2022/09/28 06:43:28;;;;;;;2.88;1.65;;;;;;;9.87;63.47;91077.28;5029511;28;20051;-73
2022/09/28 06:46:09;;;;;;;4.47;0.90;;;;;;;9.86;64.03;91073.91;5031392;28;20065;-72
2022/09/28 06:49:09;;;;;;;3.17;0.90;;;;;;;9.93;63.57;91086.44;5031256;28;20136;-72
2022/09/28 06:52:01;;;;;;;2.83;0.85;;;;;;;9.99;64.27;91085.94;5014896;28;20063;-72
2022/09/28 06:54:47;;;;;;;2.33;1.05;;;;;;;10.05;64.78;91083.19;4991677;28;1139856;-72
2022/09/28 06:57:28;;;;;;;3.75;0.90;;;;;;;10.09;65.13;91095.31;5031020;28;20063;-72
2022/09/28 06:59:54;;;;;;;4.25;1.20;;;;;;;10.12;64.93;91101.75;5014423;28;20555;-72
2022/09/28 07:02:20;;;;;;;1.88;0.98;;;;;;;10.15;65.33;91107.09;5030907;28;20391;-72
2022/09/28 07:05:08;;;;;;;1.27;0.80;;;;;;;10.19;64.18;91102.00;5030764;28;20041;-72
2022/09/28 07:07:49;;;;;;;1.10;0.80;;;;;;;10.24;63.21;91095.81;5030978;28;20515;-72
2022/09/28 07:10:43;;;;;;;0.82;0.63;;;;;;;10.27;64.31;91103.03;5031509;28;20537;-73
2022/09/28 07:13:29;;;;;;;1.52;0.80;;;;;;;10.33;65.26;91107.78;5031687;28;20495;-73
2022/09/28 07:16:04;;;;;;;1.48;0.80;;;;;;;10.37;64.35;91110.53;5034950;28;20576;-73
2022/09/28 07:18:30;;;;;;;1.13;0.60;;;;;;;10.38;64.23;91114.69;5030325;28;20068;-72
2022/09/28 07:20:56;;;;;;;2.38;0.90;;;;;;;10.39;58.75;91111.00;5030552;28;20519;-72
2022/09/28 07:23:23;;;;;;;1.23;0.80;;;;;;;10.40;57.27;91121.16;5030973;28;20197;-73
2022/09/28 07:26:24;;;;;;;3.00;1.33;;;;;;;10.39;59.48;91118.84;5021519;28;20049;-72
2022/09/28 07:29:12;;;;;;;0.93;0.70;;;;;;;10.45;56.77;91119.41;5029536;28;20055;-72
2022/09/28 07:31:53;;;;;;;2.13;0.93;;;;;;;10.50;57.90;91116.63;5030596;28;20407;-72
2022/09/28 07:34:42;;;;;;;0.80;0.70;;;;;;;10.46;55.51;91118.34;5030586;28;20511;-72
2022/09/28 07:37:17;;;;;;;1.58;1.00;;;;;;;10.51;55.01;91123.38;5029958;28;20379;-72
2022/09/28 07:42:31;;;;;;;1.15;0.70;;;;;;;10.68;53.97;91132.97;5029882;28;20120;-72
2022/09/28 07:44:58;;;;;;;0.65;0.65;;;;;;;10.74;52.81;91123.81;5013851;28;20172;-73
2022/09/28 07:47:28;;;;;;;1.27;0.63;;;;;;;10.83;54.97;91132.41;5031178;28;20035;-73
2022/09/28 07:50:12;;;;;;;2.40;0.80;;;;;;;10.95;56.75;91121.97;5031049;28;20093;-73
2022/09/28 07:53:01;;;;;;;0.60;0.60;;;;;;;11.07;57.21;91129.09;5011552;28;20056;-73
2022/09/28 07:55:39;;;;;;;1.75;0.70;;;;;;;11.19;56.16;91133.63;5029188;28;20519;-73
2022/09/28 07:58:14;;;;;;;1.48;0.65;;;;;;;11.34;53.69;91140.88;5014248;28;20543;-73
2022/09/28 08:01:03;;;;;;;1.27;0.93;;;;;;;11.50;51.32;91137.66;5029808;28;20155;-73
2022/09/28 08:03:29;;;;;;;0.95;0.68;;;;;;;11.35;53.15;91144.25;5030904;28;20047;-73
2022/09/28 08:06:05;;;;;;;4.30;0.70;;;;;;;11.45;55.83;91138.63;5029596;28;20491;-73
2022/09/28 08:08:33;;;;;;;1.17;0.75;;;;;;;11.45;55.76;91146.50;5030493;28;20037;-73
2022/09/28 08:10:59;;;;;;;2.47;0.70;;;;;;;11.39;53.90;91151.19;5029527;28;20061;-73
2022/09/28 08:13:59;;;;;;;0.70;0.60;;;;;;;11.36;50.24;91136.09;5017344;28;20079;-73
2022/09/28 08:16:47;;;;;;;0.65;0.63;;;;;;;11.38;50.46;91144.41;5029220;28;20048;-73
2022/09/28 08:19:24;;;;;;;2.05;1.17;;;;;;;11.51;50.03;91136.59;5030950;28;20554;-73
2022/09/28 08:21:50;;;;;;;3.63;1.30;;;;;;;11.83;49.40;91148.09;5029115;28;20047;-73
2022/09/28 08:24:17;;;;;;;0.77;0.73;;;;;;;11.91;48.43;91151.75;5030702;28;20037;-73
2022/09/28 08:26:44;;;;;;;1.58;0.60;;;;;;;12.02;51.36;91139.72;5013062;28;20041;-73
2022/09/28 08:29:15;;;;;;;1.67;0.80;;;;;;;12.25;53.04;91156.59;5012051;28;20052;-73
2022/09/28 08:31:50;;;;;;;1.77;1.00;;;;;;;12.32;52.75;91147.41;5009150;28;20429;-73
2022/09/28 08:34:40;;;;;;;1.52;0.93;;;;;;;12.47;52.23;91150.13;5000551;28;20142;-73
2022/09/28 08:37:08;;;;;;;0.93;0.70;;;;;;;12.76;49.58;91142.31;5020652;28;20052;-73
2022/09/28 08:39:52;;;;;;;2.20;0.85;;;;;;;13.05;49.92;91146.50;5040578;28;20119;-76
2022/09/28 08:42:39;;;;;;;;;;;;;;;13.15;50.63;91147.88;5007570;28;20038;-77
2022/09/28 08:45:38;;;;;;;3.40;1.20;;;;;;;13.16;51.37;91150.19;5016323;28;19916;-76
2022/09/28 08:48:42;;;;;;;1.52;0.93;;;;;;;12.98;52.70;91141.81;5015387;28;20080;-76
2022/09/28 08:51:30;;;;;;;1.30;0.88;;;;;;;13.19;50.78;91149.50;5028046;28;20506;-76
2022/09/28 08:54:56;;;;;;;1.27;0.90;;;;;;;13.68;50.94;91141.44;5034494;28;20096;-76
2022/09/28 08:57:53;;;;;;;2.00;1.00;;;;;;;13.89;46.85;91130.72;5062200;28;20500;-76
2022/09/28 09:00:31;;;;;;;2.53;1.10;;;;;;;13.97;51.56;91125.63;5027649;28;20056;-77
2022/09/28 09:02:56;;;;;;;4.00;1.38;;;;;;;14.12;53.90;91132.75;5030087;28;20035;-77
2022/09/28 09:05:45;;;;;;;2.97;1.40;;;;;;;14.19;55.31;91132.91;5062885;28;20037;-76
2022/09/28 09:08:20;;;;;;;4.32;1.38;;;;;;;14.24;53.20;91139.78;5028765;28;20116;-77
2022/09/28 09:11:09;;;;;;;4.03;1.00;;;;;;;14.32;51.87;91131.72;5028209;28;20041;-76
2022/09/28 09:14:14;;;;;;;4.60;1.50;;;;;;;14.69;49.94;91126.16;5037955;28;20096;-76
2022/09/28 09:17:17;;;;;;;3.88;1.40;;;;;;;15.23;50.00;91119.34;5028764;28;20576;-76
2022/09/28 09:20:10;;;;;;;3.40;1.40;;;;;;;15.41;46.34;91115.16;5029805;28;20513;-76
2022/09/28 09:23:04;;;;;;;4.18;1.60;;;;;;;15.65;48.38;91113.31;5027875;28;20041;-76
2022/09/28 09:25:41;;;;;;;2.67;1.33;;;;;;;15.32;49.81;91116.47;5060912;28;20488;-76
2022/09/28 09:28:10;;;;;;;4.43;1.40;;;;;;;14.94;50.40;91112.72;5054619;28;20602;-76
2022/09/28 09:30:44;;;;;;;5.68;1.90;;;;;;;14.56;50.52;91106.28;5028939;28;20120;-76
2022/09/28 09:33:36;;;;;;;3.20;1.20;;;;;;;14.75;52.86;91110.84;5028088;28;20519;-77
2022/09/28 09:37:01;;;;;;;3.80;1.45;;;;;;;14.81;52.25;91117.34;5006837;28;20089;-76
2022/09/28 09:40:24;;;;;;;5.57;1.48;;;;;;;14.74;49.08;91110.06;5027962;28;20045;-75
2022/09/28 09:43:38;;;;;;;3.22;1.27;;;;;;;14.80;51.32;91102.66;5009613;28;20475;-75
2022/09/28 09:46:39;;;;;;;2.92;1.20;;;;;;;14.53;50.45;91107.72;5018247;28;20436;-76
2022/09/28 09:49:48;;;;;;;3.63;1.48;;;;;;;14.51;51.40;91101.28;5031431;28;20079;-76
2022/09/28 09:52:37;;;;;;;3.80;1.13;;;;;;;14.26;53.30;91098.84;5030278;28;20184;-77
2022/09/28 09:55:15;;;;;;;3.83;1.35;;;;;;;14.53;52.30;91091.16;5012478;28;20046;-76
2022/09/28 09:58:20;;;;;;;2.50;1.10;;;;;;;14.34;53.22;91081.34;5007275;28;20061;-76
2022/09/28 10:00:54;;;;;;;2.75;1.20;;;;;;;14.31;53.61;91082.03;5052637;28;20096;-77
2022/09/28 10:03:46;;;;;;;3.08;1.15;;;;;;;14.49;52.99;91082.44;5031390;28;20042;-76
2022/09/28 10:06:26;;;;;;;1.52;1.08;;;;;;;14.70;53.99;91082.91;5033375;28;20033;-76
2022/09/28 10:09:12;;;;;;;4.22;1.30;;;;;;;14.74;52.29;91070.56;5028016;28;20104;-77
2022/09/28 10:11:48;;;;;;;2.78;1.33;;;;;;;14.91;50.72;91074.66;5013714;28;20544;-79
2022/09/28 10:14:20;;;;;;;3.50;1.40;;;;;;;15.34;47.75;91077.34;5031875;28;20048;-76
2022/09/28 10:17:02;;;;;;;2.35;1.40;;;;;;;15.67;52.40;91078.66;5015657;28;20499;-77
2022/09/28 10:19:53;;;;;;;4.45;1.30;;;;;;;15.50;52.50;91075.38;5011958;28;20064;-76
2022/09/28 10:22:32;;;;;;;2.13;1.10;;;;;;;15.25;50.69;91074.19;5045958;28;20411;-76
2022/09/28 10:25:04;;;;;;;2.22;1.30;;;;;;;15.17;51.86;91068.00;5012176;28;20045;-77
2022/09/28 10:27:34;;;;;;;2.58;1.33;;;;;;;15.28;53.36;91070.84;5012986;28;20124;-78
2022/09/28 10:30:08;;;;;;;3.15;1.30;;;;;;;15.36;51.24;91064.59;5015212;28;20554;-77
2022/09/28 10:32:40;;;;;;;1.65;1.10;;;;;;;15.56;52.33;91062.69;5046270;28;20033;-77
2022/09/28 10:35:18;;;;;;;2.55;1.50;;;;;;;15.14;52.92;91055.53;5031708;28;20033;-77
2022/09/28 10:37:54;;;;;;;1.75;1.17;;;;;;;15.20;51.88;91062.03;5045101;28;20029;-78
2022/09/28 10:41:08;;;;;;;2.63;1.40;;;;;;;15.13;52.07;91062.69;5030654;28;20057;-77
2022/09/28 10:44:05;;;;;;;3.03;1.40;;;;;;;14.96;51.56;91063.09;5027443;28;20613;-76
2022/09/28 10:46:37;;;;;;;2.30;1.25;;;;;;;15.15;52.35;91070.22;5037345;28;20022;-77
2022/09/28 10:49:13;;;;;;;5.43;1.90;;;;;;;15.66;54.56;91066.59;5031479;28;20041;-77
2022/09/28 10:51:42;;;;;;;3.22;1.88;;;;;;;16.17;51.47;91069.72;5031097;28;20041;-77
2022/09/28 10:54:19;;;;;;;8.77;2.00;;;;;;;16.22;49.41;91066.00;5017874;28;20047;-77
2022/09/28 10:56:48;;;;;;;3.63;1.90;;;;;;;16.52;50.28;91065.28;5033310;28;20025;-77
2022/09/28 10:59:27;;;;;;;3.95;1.65;;;;;;;16.74;47.66;91064.47;5030082;28;20029;-77
2022/09/28 11:02:00;;;;;;;4.47;1.85;;;;;;;16.75;49.70;91055.44;5039471;28;20039;-77
2022/09/28 11:04:28;;;;;;;4.00;1.52;;;;;;;16.31;47.84;91055.19;5045505;28;20076;-78
2022/09/28 11:06:57;;;;;;;2.15;1.20;;;;;;;16.12;47.90;91056.03;5066427;28;20440;-75
2022/09/28 11:09:40;;;;;;;4.53;1.73;;;;;;;15.78;49.35;91059.31;5029911;28;20041;-76
2022/09/28 11:12:14;;;;;;;3.30;1.95;;;;;;;15.98;49.29;91048.69;5030915;28;20041;-76
2022/09/28 11:14:45;;;;;;;3.40;1.70;;;;;;;16.08;49.55;91056.00;5025766;28;20573;-76
2022/09/28 11:17:37;;;;;;;2.72;1.40;;;;;;;15.97;48.04;91053.19;5029855;28;20124;-76
2022/09/28 11:20:25;;;;;;;7.40;1.80;;;;;;;15.85;50.75;91047.34;5029619;28;20411;-76
2022/09/28 11:22:55;;;;;;;2.72;1.42;;;;;;;15.59;50.72;91051.41;5046073;28;20048;-76
2022/09/28 11:25:30;;;;;;;6.60;1.60;;;;;;;15.42;50.22;91039.44;5030325;28;20487;-77
2022/09/28 11:27:59;;;;;;;5.38;1.70;;;;;;;15.46;49.44;91040.28;4996978;28;20092;-77
2022/09/28 11:30:30;;;;;;;2.75;1.58;;;;;;;15.38;49.96;91041.28;5028722;28;20465;-76
2022/09/28 11:33:24;;;;;;;3.70;1.77;;;;;;;15.27;49.67;91037.69;5022806;28;20049;-77
2022/09/28 11:36:35;;;;;;;3.45;1.85;;;;;;;15.48;49.87;91030.13;5027682;28;20033;-76
2022/09/28 11:39:17;;;;;;;5.40;1.90;;;;;;;15.66;49.84;91027.03;5028090;28;20152;-77
2022/09/28 11:42:04;;;;;;;2.55;1.35;;;;;;;16.12;49.10;91021.72;5023475;28;20037;-77
2022/09/28 11:44:53;;;;;;;3.63;1.85;;;;;;;16.03;49.57;91028.03;5051643;28;20513;-77
2022/09/28 11:47:34;;;;;;;5.25;1.90;;;;;;;15.99;49.94;91024.56;5028462;28;20045;-77
2022/09/28 11:50:27;;;;;;;4.93;2.10;;;;;;;15.88;50.43;91026.28;5028270;28;20033;-77
2022/09/28 11:53:13;;;;;;;4.00;2.10;;;;;;;16.35;49.64;91022.44;5028646;28;20120;-78
2022/09/28 11:55:46;;;;;;;6.32;2.38;;;;;;;16.59;48.00;91017.84;5028876;28;20045;-77
2022/09/28 11:58:34;;;;;;;6.25;1.88;;;;;;;16.29;49.19;91017.84;5032427;28;20041;-77
2022/09/28 12:01:14;;;;;;;3.03;1.90;;;;;;;16.17;49.88;91026.72;5018284;28;20065;-77
2022/09/28 12:04:07;;;;;;;5.05;2.50;;;;;;;16.17;49.02;91016.16;5031541;28;20399;-77
2022/09/28 12:06:44;;;;;;;4.70;2.35;;;;;;;15.84;48.01;91024.72;5020307;28;20060;-78
2022/09/28 12:09:21;;;;;;;3.08;1.67;;;;;;;15.75;50.79;91017.03;5046996;28;20499;-76
2022/09/28 12:12:02;;;;;;;3.22;1.80;;;;;;;15.56;49.93;91031.03;5026465;28;20105;-77
2022/09/28 12:14:47;;;;;;;5.13;2.00;;;;;;;15.73;50.62;91024.53;5012371;28;20038;-77
2022/09/28 12:17:23;;;;;;;5.38;1.92;;;;;;;15.80;48.58;91027.28;5026095;28;20069;-77
2022/09/28 12:20:27;;;;;;;4.68;2.13;;;;;;;15.92;49.18;91032.41;5020285;28;20037;-77
2022/09/28 12:23:00;;;;;;;5.78;1.92;;;;;;;16.00;48.58;91026.09;5009466;28;20060;-77
2022/09/28 12:25:32;;;;;;;5.53;1.75;;;;;;;16.14;47.41;91022.13;5030901;28;20041;-78
2022/09/28 12:28:15;;;;;;;4.03;1.55;;;;;;;16.01;49.95;91025.00;5030421;28;20041;-77
2022/09/28 12:30:44;;;;;;;4.75;1.80;;;;;;;15.66;47.06;91021.75;5029676;28;20030;-77